KNFG

Details ICAO KNFG
Name Camp Pendleton MCAS
Region United States
Timezone America/Los_Angeles (UTC-7.0)
Plans Departing 22
Arriving 9
Stats Elevation 78 ft / 24 m (AMSL)
Location 33.301390° -117.355000°
Runways 1
Magnetic Variation 11.629° E
Sunrise 2018-05-24 12:45:28 UTC / 2018-05-24 05:45:28 Local
Sunset 2018-05-25 02:49:59 UTC / 2018-05-24 19:49:59 Local
Advertisement - Login to hide

Runways

ID Width Length Bearing (true) Bearing (mag) Surface Threshold Offset Overrun Length
03 200 ft / 61 m 6,004 ft / 1,830 m 44.60° 32.97° Asphalt 0 ft / 0 m 1,000 ft / 305 m
21 200 ft / 61 m 6,004 ft / 1,830 m 224.61° 212.98° Asphalt 0 ft / 0 m 1,000 ft / 305 m

Map

Weather


0- 5 10 15 20 25 30 35+ Temperature / ° C

Clouds and Precipitation
Forecast for 2018-05-24 12:00 UTC. Updated 3 hours ago

Ground ~20,000 ft ~40,000 ft Winds

METAR

KNFG 241347Z AUTO 23003KT 4SM BR OVC012 14/14 A3006 RMK AO2 RAE41 P0001 T01390139

TAF

TAF AMD KNFG 2409/2509 VRB05KT 8000 BR BKN007 OVC015 QNH3001INS TEMPO 2409/2415 4800 -SHRA BECMG 2415/2417 25008KT 9999 NSW BKN015 BKN040 QNH3001INS FM250330 VRB05KT 9999 BKN015 OVC040 QNH3004INS T11/2411Z T21/2421Z AMD 0907

Frequencies

Clearance 126.20 MHz CLNC DEL
Tower 128.77 MHz TWR
Approach 127.30 MHz SOCAL APP/DEP
Ground 128.77 MHz GND
Approach 128.45 MHz APP/DEP
Warning: Do not use this data for real-world aviation or navigation. No guarantee of current accuracy is given.